Time;durP1;ratioP1;P1;durP2;ratioP2;P2;SDS_P1;SDS_P2;PMS_P1;PMS_P2;Temp;Humidity;BMP_temperature;BMP_pressure;BME280_temperature;BME280_humidity;BME280_pressure;Samples;Min_cycle;Max_cycle;Signal;HPM_P1;HPM_P2
2022/03/13 00:00:47;;;;;;;19.55;10.98;;;6.60;99.90;;;;;;4830402;29;20062;-81
2022/03/13 00:03:14;;;;;;;27.08;24.23;;;6.50;99.90;;;;;;4812853;29;20063;-81
2022/03/13 00:05:43;;;;;;;17.60;12.00;;;6.50;99.90;;;;;;4811182;29;20057;-81
2022/03/13 00:08:21;;;;;;;16.40;11.35;;;6.50;99.90;;;;;;4814036;29;20043;-81
2022/03/13 00:10:50;;;;;;;18.48;11.15;;;6.50;99.90;;;;;;4807483;29;20054;-81
2022/03/13 00:13:20;;;;;;;18.45;10.90;;;6.50;99.90;;;;;;4814070;29;20050;-81
2022/03/13 00:15:49;;;;;;;17.98;11.43;;;6.50;99.90;;;;;;4804597;29;20081;-81
2022/03/13 00:18:15;;;;;;;18.65;10.88;;;6.50;99.90;;;;;;4832047;29;20066;-81
2022/03/13 00:20:41;;;;;;;18.25;10.85;;;6.50;99.90;;;;;;4835255;29;20051;-81
2022/03/13 00:23:07;;;;;;;16.55;11.02;;;6.40;99.90;;;;;;4808216;29;20054;-82
2022/03/13 00:25:34;;;;;;;16.08;10.70;;;6.40;99.90;;;;;;4833013;29;20409;-81
2022/03/13 00:27:59;;;;;;;19.02;11.00;;;6.40;99.90;;;;;;4806234;29;20058;-81
2022/03/13 00:30:25;;;;;;;19.40;11.00;;;6.40;99.90;;;;;;4833535;29;20391;-81
2022/03/13 00:32:51;;;;;;;17.08;11.20;;;6.40;99.90;;;;;;4814355;29;20070;-81
2022/03/13 00:35:17;;;;;;;16.77;10.65;;;6.40;99.90;;;;;;4817475;29;20050;-81
2022/03/13 00:37:43;;;;;;;17.15;11.05;;;6.30;99.90;;;;;;4819133;29;20066;-81
2022/03/13 00:40:10;;;;;;;17.58;11.05;;;6.40;99.90;;;;;;4803063;29;20059;-81
2022/03/13 00:42:37;;;;;;;18.58;11.38;;;6.30;99.90;;;;;;4818149;29;20556;-82
2022/03/13 00:45:03;;;;;;;16.90;11.43;;;6.50;99.90;;;;;;4836171;29;20062;-81
2022/03/13 00:47:29;;;;;;;18.63;11.38;;;6.30;99.90;;;;;;4821005;29;20085;-81
2022/03/13 00:49:55;;;;;;;17.65;10.80;;;6.30;99.90;;;;;;4814811;29;20055;-82
2022/03/13 00:52:20;;;;;;;17.42;11.20;;;6.40;99.90;;;;;;4825386;29;20061;-81
2022/03/13 00:54:46;;;;;;;17.23;10.82;;;6.30;99.90;;;;;;4836199;29;20070;-81
2022/03/13 00:57:12;;;;;;;17.15;11.23;;;6.30;99.90;;;;;;4805087;29;20057;-81
2022/03/13 00:59:38;;;;;;;21.10;11.73;;;6.30;99.90;;;;;;4817819;29;20073;-81
2022/03/13 01:02:05;;;;;;;21.25;11.23;;;6.30;99.90;;;;;;4804952;29;20094;-79
2022/03/13 01:04:31;;;;;;;21.80;11.10;;;6.30;99.90;;;;;;4814127;29;20231;-81
2022/03/13 01:06:56;;;;;;;15.63;10.90;;;6.30;99.90;;;;;;4823279;29;20047;-81
2022/03/13 01:09:22;;;;;;;19.27;11.50;;;6.30;99.90;;;;;;4815564;29;20050;-81
2022/03/13 01:11:48;;;;;;;16.50;11.02;;;6.30;99.90;;;;;;4820608;29;20054;-81
2022/03/13 01:14:16;;;;;;;18.15;11.60;;;6.30;99.90;;;;;;4821568;29;20049;-79
2022/03/13 01:16:42;;;;;;;16.05;10.23;;;6.40;99.90;;;;;;4807614;29;20049;-81
2022/03/13 01:19:08;;;;;;;17.40;11.38;;;6.40;99.90;;;;;;4810180;29;20061;-81
2022/03/13 01:21:39;;;;;;;17.90;11.00;;;6.30;99.90;;;;;;4815167;29;20055;-81
2022/03/13 01:24:05;;;;;;;17.38;9.93;;;6.30;99.90;;;;;;4803929;29;20043;-81
2022/03/13 01:26:34;;;;;;;15.70;10.57;;;6.30;99.90;;;;;;4806179;29;20069;-81
2022/03/13 01:29:03;;;;;;;17.40;11.50;;;6.30;99.90;;;;;;4821634;29;20134;-81
2022/03/13 01:31:32;;;;;;;15.00;10.15;;;6.40;99.90;;;;;;4835970;29;20474;-81
2022/03/13 01:33:58;;;;;;;18.38;11.18;;;6.40;99.90;;;;;;4812385;29;20549;-81
2022/03/13 01:36:24;;;;;;;17.38;10.85;;;6.40;99.90;;;;;;4836357;29;20099;-81
2022/03/13 01:38:56;;;;;;;14.30;10.00;;;6.40;99.90;;;;;;4838518;29;20411;-81
2022/03/13 01:41:24;;;;;;;20.20;11.40;;;6.40;99.90;;;;;;4836548;29;20121;-81
2022/03/13 01:43:50;;;;;;;19.17;12.60;;;6.40;99.90;;;;;;4807877;29;20468;-82
2022/03/13 01:46:17;;;;;;;16.90;10.85;;;6.40;99.90;;;;;;4806818;29;20090;-79
2022/03/13 01:48:55;;;;;;;16.70;10.88;;;6.40;99.90;;;;;;4820636;29;20485;-81
2022/03/13 01:51:23;;;;;;;16.95;11.13;;;6.30;99.90;;;;;;4806556;29;20086;-81
2022/03/13 01:53:53;;;;;;;17.15;11.02;;;6.30;99.90;;;;;;4806993;29;20053;-81
2022/03/13 01:56:20;;;;;;;17.75;10.63;;;6.30;99.90;;;;;;4835693;29;20667;-80
2022/03/13 01:58:53;;;;;;;15.70;10.70;;;6.30;99.90;;;;;;4815947;29;20499;-81
2022/03/13 02:01:20;;;;;;;20.40;12.10;;;6.40;99.90;;;;;;4812172;29;20555;-81
2022/03/13 02:03:47;;;;;;;18.08;11.27;;;6.40;99.90;;;;;;4813146;29;20152;-81
2022/03/13 02:06:13;;;;;;;17.98;10.68;;;6.40;99.90;;;;;;4807027;29;20116;-81
2022/03/13 02:08:38;;;;;;;15.05;10.15;;;6.40;99.90;;;;;;4810558;29;20055;-81
2022/03/13 02:11:05;;;;;;;20.33;10.98;;;6.30;99.90;;;;;;4809633;29;21357;-82
2022/03/13 02:13:31;;;;;;;17.50;10.70;;;6.30;99.90;;;;;;4838656;29;20504;-82
2022/03/13 02:15:58;;;;;;;17.50;10.25;;;6.30;99.90;;;;;;4817071;29;20062;-81
2022/03/13 02:18:23;;;;;;;17.50;10.73;;;6.30;99.90;;;;;;4805998;29;20489;-81
2022/03/13 02:20:49;;;;;;;18.67;12.60;;;6.30;99.90;;;;;;4806588;29;20064;-81
2022/03/13 02:23:23;;;;;;;20.23;11.57;;;6.40;99.90;;;;;;4806394;29;20055;-81
2022/03/13 02:25:52;;;;;;;17.90;11.30;;;6.40;99.90;;;;;;4808520;29;20062;-81
2022/03/13 02:28:23;;;;;;;17.45;11.38;;;6.40;99.90;;;;;;4827182;29;20130;-82
2022/03/13 02:30:50;;;;;;;18.70;11.73;;;6.40;99.90;;;;;;4806197;29;20054;-81
2022/03/13 02:33:18;;;;;;;16.88;10.85;;;6.60;99.90;;;;;;4835091;29;20082;-81
2022/03/13 02:35:50;;;;;;;15.80;10.38;;;6.30;99.90;;;;;;4805439;29;20051;-81
2022/03/13 02:38:16;;;;;;;19.85;11.20;;;6.30;99.90;;;;;;4821694;29;20046;-81
2022/03/13 02:40:42;;;;;;;18.08;11.23;;;6.20;99.90;;;;;;4815378;29;20050;-81
2022/03/13 02:43:07;;;;;;;17.52;10.68;;;6.20;99.90;;;;;;4807856;29;20492;-81
2022/03/13 02:45:36;;;;;;;15.93;11.18;;;6.30;99.90;;;;;;4814618;29;20055;-81
2022/03/13 02:48:04;;;;;;;17.15;11.65;;;6.10;99.90;;;;;;4804678;29;20401;-81
2022/03/13 02:50:30;;;;;;;17.98;11.40;;;6.10;99.90;;;;;;4835068;29;20067;-81
2022/03/13 02:52:56;;;;;;;17.73;11.10;;;6.10;99.90;;;;;;4837946;29;20191;-81
2022/03/13 02:55:22;;;;;;;15.52;11.02;;;6.10;99.90;;;;;;4808607;29;20057;-82
2022/03/13 02:57:48;;;;;;;20.92;11.45;;;6.20;99.90;;;;;;4804803;29;20054;-81
2022/03/13 03:00:16;;;;;;;17.15;11.02;;;6.20;99.90;;;;;;4829913;29;20405;-81
2022/03/13 03:02:42;;;;;;;15.80;10.45;;;6.20;99.90;;;;;;4803591;29;20059;-81
2022/03/13 03:05:09;;;;;;;16.58;10.85;;;6.30;99.90;;;;;;4805088;29;20535;-81
2022/03/13 03:07:35;;;;;;;15.93;10.65;;;6.20;99.90;;;;;;4817970;29;20511;-81
2022/03/13 03:10:03;;;;;;;15.27;9.73;;;6.20;99.90;;;;;;4821294;29;20412;-81
2022/03/13 03:12:29;;;;;;;17.55;11.02;;;6.20;99.90;;;;;;4819553;29;20477;-82
2022/03/13 03:14:55;;;;;;;19.30;11.23;;;6.30;99.90;;;;;;4804127;29;20065;-82
2022/03/13 03:17:20;;;;;;;16.83;10.75;;;6.30;99.90;;;;;;4805597;29;20054;-81
2022/03/13 03:19:46;;;;;;;16.48;10.82;;;6.30;99.90;;;;;;4820196;29;20053;-82
2022/03/13 03:22:13;;;;;;;20.38;11.57;;;6.20;99.90;;;;;;4822716;29;20065;-81
2022/03/13 03:24:39;;;;;;;17.65;10.77;;;6.20;99.90;;;;;;4818558;29;20554;-82
2022/03/13 03:27:05;;;;;;;18.90;10.68;;;6.20;99.90;;;;;;4834394;29;20054;-82
2022/03/13 03:29:31;;;;;;;17.83;11.52;;;6.10;99.90;;;;;;4837678;29;20071;-82
2022/03/13 03:31:58;;;;;;;15.57;10.45;;;6.10;99.90;;;;;;4809473;29;20540;-81
2022/03/13 03:34:25;;;;;;;16.25;10.70;;;6.00;99.90;;;;;;4833460;29;20493;-81
2022/03/13 03:37:02;;;;;;;16.38;11.00;;;5.90;99.90;;;;;;4812841;29;20054;-82
2022/03/13 03:39:28;;;;;;;;;;;5.80;99.90;;;;;;4822713;29;20058;-81
2022/03/13 03:41:55;;;;;;;17.02;10.65;;;5.70;99.90;;;;;;4818218;29;19925;-81
2022/03/13 03:44:22;;;;;;;18.45;10.85;;;5.70;99.90;;;;;;4833449;29;20397;-81
2022/03/13 03:46:48;;;;;;;19.08;11.60;;;5.90;99.90;;;;;;4834177;29;20051;-81
2022/03/13 03:49:15;;;;;;;16.85;10.70;;;5.60;99.90;;;;;;4810066;29;20133;-81
2022/03/13 03:51:41;;;;;;;15.60;10.27;;;5.60;99.90;;;;;;4822528;29;20461;-81
2022/03/13 03:54:07;;;;;;;16.38;10.25;;;5.50;99.90;;;;;;4814081;29;20142;-81
2022/03/13 03:56:34;;;;;;;15.68;10.02;;;5.40;99.90;;;;;;4833886;29;20047;-81
2022/03/13 03:59:00;;;;;;;18.50;11.02;;;5.30;99.90;;;;;;4815829;29;20472;-81
2022/03/13 04:01:26;;;;;;;16.23;10.75;;;5.20;99.90;;;;;;4816607;29;20103;-81
2022/03/13 04:03:52;;;;;;;18.27;10.82;;;5.20;99.90;;;;;;4802764;29;20098;-81
2022/03/13 04:06:19;;;;;;;18.60;10.98;;;5.20;99.90;;;;;;4818952;29;20101;-81
2022/03/13 04:08:46;;;;;;;18.10;10.75;;;5.40;99.90;;;;;;4826626;29;20520;-81
2022/03/13 04:11:12;;;;;;;19.15;11.18;;;5.00;99.90;;;;;;4804779;29;20047;-81
2022/03/13 04:13:38;;;;;;;17.58;10.80;;;5.10;99.90;;;;;;4833411;29;20066;-81
2022/03/13 04:16:08;;;;;;;17.83;10.77;;;4.90;99.90;;;;;;4834041;29;20715;-82
2022/03/13 04:18:36;;;;;;;16.88;10.90;;;5.00;99.90;;;;;;4808840;29;20142;-81
2022/03/13 04:21:03;;;;;;;19.42;11.77;;;4.80;99.90;;;;;;4804274;29;20065;-81
2022/03/13 04:23:31;;;;;;;16.23;10.93;;;4.70;99.90;;;;;;4804082;29;20539;-81
2022/03/13 04:25:56;;;;;;;16.45;10.88;;;4.70;99.90;;;;;;4805841;29;20130;-81
2022/03/13 04:28:22;;;;;;;17.73;11.10;;;4.80;99.90;;;;;;4821897;29;20137;-82
2022/03/13 04:30:57;;;;;;;14.32;10.15;;;4.60;99.90;;;;;;4821666;29;20257;-82
2022/03/13 04:33:25;;;;;;;17.17;10.15;;;5.10;99.90;;;;;;4811599;29;20058;-82
2022/03/13 04:35:52;;;;;;;17.05;10.48;;;4.50;99.90;;;;;;4833108;29;20134;-81
2022/03/13 04:38:19;;;;;;;15.13;10.13;;;4.40;99.90;;;;;;4806235;29;20573;-82
2022/03/13 04:40:46;;;;;;;17.00;11.02;;;4.40;99.90;;;;;;4834161;29;20115;-81
2022/03/13 04:43:12;;;;;;;19.67;10.88;;;4.40;99.90;;;;;;4814932;29;20047;-81
2022/03/13 04:45:37;;;;;;;18.55;11.85;;;4.70;99.90;;;;;;4834420;29;20047;-82
2022/03/13 04:48:03;;;;;;;18.23;11.65;;;4.60;99.90;;;;;;4833413;29;20059;-82
2022/03/13 04:50:29;;;;;;;19.15;10.63;;;4.40;99.90;;;;;;4803017;29;20061;-81
2022/03/13 04:52:54;;;;;;;16.60;10.85;;;4.40;99.90;;;;;;4804482;29;20062;-81
2022/03/13 04:55:20;;;;;;;17.88;11.50;;;4.40;99.90;;;;;;4821479;29;20053;-81
2022/03/13 04:57:46;;;;;;;16.08;10.43;;;4.40;99.90;;;;;;4807092;29;20086;-81
2022/03/13 05:00:12;;;;;;;16.98;10.60;;;4.50;99.90;;;;;;4815037;29;20042;-81
2022/03/13 05:02:38;;;;;;;18.50;10.40;;;4.30;99.90;;;;;;4821006;29;20103;-79
2022/03/13 05:05:04;;;;;;;15.25;10.57;;;4.50;99.90;;;;;;4818388;29;20062;-81
2022/03/13 05:07:30;;;;;;;17.50;10.25;;;4.40;99.90;;;;;;4846084;29;20054;-81
2022/03/13 05:09:56;;;;;;;15.65;9.80;;;4.60;99.90;;;;;;4796808;29;20051;-81
2022/03/13 05:12:29;;;;;;;16.55;10.38;;;4.40;99.90;;;;;;4808833;29;20055;-82
2022/03/13 05:14:55;;;;;;;16.23;10.88;;;4.40;99.90;;;;;;4825575;29;20187;-82
2022/03/13 05:17:21;;;;;;;15.00;9.10;;;4.50;99.90;;;;;;4837640;29;20092;-82
2022/03/13 05:19:46;;;;;;;16.58;10.63;;;4.60;99.90;;;;;;4810401;29;20089;-81
2022/03/13 05:22:12;;;;;;;15.50;9.85;;;4.50;99.90;;;;;;4807538;29;20059;-81
2022/03/13 05:24:38;;;;;;;14.90;9.93;;;4.60;99.90;;;;;;4836861;29;20532;-81
2022/03/13 05:27:04;;;;;;;16.02;11.13;;;4.50;99.90;;;;;;4821099;29;20404;-81
2022/03/13 05:29:29;;;;;;;18.80;10.07;;;4.50;99.90;;;;;;4806488;29;20055;-81
2022/03/13 05:31:55;;;;;;;16.67;10.05;;;4.90;99.90;;;;;;4806389;29;20061;-81
2022/03/13 05:34:21;;;;;;;16.25;10.23;;;4.50;99.90;;;;;;4820163;29;20046;-81
2022/03/13 05:36:46;;;;;;;15.95;10.48;;;4.40;99.90;;;;;;4836019;29;20408;-81
2022/03/13 05:39:12;;;;;;;15.95;9.68;;;4.40;99.90;;;;;;4836263;29;20050;-81
2022/03/13 05:41:39;;;;;;;18.25;10.10;;;4.30;99.90;;;;;;4807044;29;20046;-81
2022/03/13 05:44:09;;;;;;;20.20;11.20;;;4.30;99.90;;;;;;4822221;29;20065;-82
2022/03/13 05:46:35;;;;;;;17.40;9.43;;;4.30;99.90;;;;;;4820512;29;20416;-82
2022/03/13 05:49:02;;;;;;;15.45;9.45;;;4.20;99.90;;;;;;4811996;29;20091;-81
2022/03/13 05:51:27;;;;;;;14.65;9.88;;;4.50;99.90;;;;;;4836338;29;20467;-81
2022/03/13 05:53:53;;;;;;;15.82;9.65;;;4.20;99.90;;;;;;4806989;29;20134;-81
2022/03/13 05:56:19;;;;;;;18.65;9.55;;;4.50;99.90;;;;;;4811117;29;20408;-81
2022/03/13 05:58:44;;;;;;;15.65;9.65;;;4.60;99.90;;;;;;4824615;29;20511;-81
2022/03/13 06:01:11;;;;;;;19.13;10.27;;;4.10;99.90;;;;;;4820761;29;20082;-81
2022/03/13 06:03:38;;;;;;;18.05;10.63;;;4.20;99.90;;;;;;4813003;29;20070;-81
2022/03/13 06:06:04;;;;;;;15.63;9.60;;;4.80;99.90;;;;;;4815194;29;20054;-81
2022/03/13 06:08:31;;;;;;;16.45;10.23;;;4.20;99.90;;;;;;4825437;29;20062;-81
2022/03/13 06:10:57;;;;;;;17.80;10.65;;;4.20;99.90;;;;;;4808763;29;20137;-82
2022/03/13 06:13:24;;;;;;;15.55;9.43;;;4.20;99.90;;;;;;4805248;29;20497;-81
2022/03/13 06:15:50;;;;;;;16.05;9.82;;;4.30;99.90;;;;;;4820178;29;20533;-81
2022/03/13 06:18:16;;;;;;;15.77;9.45;;;4.30;99.90;;;;;;4835558;29;20085;-82
2022/03/13 06:20:42;;;;;;;16.40;10.65;;;4.30;99.90;;;;;;4805437;29;20067;-82
2022/03/13 06:23:09;;;;;;;17.42;10.48;;;4.30;99.90;;;;;;4821928;29;20070;-81
2022/03/13 06:25:35;;;;;;;16.83;10.48;;;4.30;99.90;;;;;;4814168;29;20093;-82
2022/03/13 06:28:00;;;;;;;14.85;9.40;;;4.40;99.90;;;;;;4838400;29;20081;-82
2022/03/13 06:30:26;;;;;;;15.95;9.68;;;4.40;99.90;;;;;;4823476;29;20050;-82
2022/03/13 06:32:53;;;;;;;15.23;9.13;;;4.50;99.90;;;;;;4822769;29;20132;-82
2022/03/13 06:35:21;;;;;;;14.38;9.80;;;4.70;99.90;;;;;;4806405;29;20051;-82
2022/03/13 06:37:48;;;;;;;20.17;10.88;;;4.60;99.90;;;;;;4835330;29;20066;-82
2022/03/13 06:40:19;;;;;;;16.67;9.70;;;4.70;99.90;;;;;;4819928;29;20054;-82
2022/03/13 06:42:47;;;;;;;16.15;9.70;;;5.10;99.90;;;;;;4821088;29;20127;-81
2022/03/13 06:45:13;;;;;;;17.30;9.55;;;5.20;99.90;;;;;;4823226;29;20129;-82
2022/03/13 06:47:40;;;;;;;14.50;9.57;;;5.30;99.90;;;;;;4818483;29;20051;-83
2022/03/13 06:50:08;;;;;;;15.70;9.80;;;5.20;99.90;;;;;;4838420;29;20046;-82
2022/03/13 06:52:34;;;;;;;16.23;10.48;;;5.00;99.90;;;;;;4816742;29;20458;-80
2022/03/13 06:55:01;;;;;;;15.95;10.23;;;5.10;99.90;;;;;;4822987;29;20090;-82
2022/03/13 06:57:26;;;;;;;15.88;10.25;;;5.50;99.90;;;;;;4811295;29;20420;-81
2022/03/13 06:59:52;;;;;;;16.27;10.40;;;5.30;99.90;;;;;;4817226;29;20047;-81
2022/03/13 07:02:18;;;;;;;15.48;10.38;;;5.60;99.90;;;;;;4820781;29;20062;-81
2022/03/13 07:04:43;;;;;;;17.92;10.60;;;5.60;99.90;;;;;;4807892;29;20082;-82
2022/03/13 07:07:09;;;;;;;18.60;10.57;;;5.40;99.90;;;;;;4826147;29;20049;-82
2022/03/13 07:09:35;;;;;;;14.77;9.85;;;5.50;99.90;;;;;;4832149;29;20419;-81
2022/03/13 07:12:01;;;;;;;16.10;9.73;;;5.60;99.90;;;;;;4834198;29;20054;-80
2022/03/13 07:14:27;;;;;;;16.13;9.70;;;5.60;99.90;;;;;;4819795;29;20142;-81
2022/03/13 07:16:52;;;;;;;15.98;9.35;;;5.70;99.90;;;;;;4805457;29;20090;-81
2022/03/13 07:19:18;;;;;;;15.85;10.27;;;5.80;99.90;;;;;;4834630;29;20058;-81
2022/03/13 07:21:45;;;;;;;14.85;9.80;;;5.80;99.90;;;;;;4833887;29;20520;-81
2022/03/13 07:24:11;;;;;;;15.93;9.45;;;5.80;99.90;;;;;;4834094;29;20121;-82
2022/03/13 07:26:37;;;;;;;14.95;9.35;;;5.80;99.90;;;;;;4834424;29;20062;-81
2022/03/13 07:29:03;;;;;;;14.75;9.80;;;5.80;99.90;;;;;;4814503;29;20407;-81
2022/03/13 07:31:30;;;;;;;16.88;8.93;;;5.80;99.90;;;;;;4806714;29;20062;-82
2022/03/13 07:33:56;;;;;;;16.05;9.50;;;5.80;99.90;;;;;;4833764;29;20090;-81
2022/03/13 07:36:22;;;;;;;16.50;9.63;;;5.90;99.90;;;;;;4812520;29;20038;-82
2022/03/13 07:38:48;;;;;;;16.92;10.45;;;5.90;99.90;;;;;;4823603;29;20062;-81
2022/03/13 07:41:14;;;;;;;15.95;9.35;;;6.00;99.90;;;;;;4809638;29;20484;-86
2022/03/13 07:43:39;;;;;;;15.02;8.82;;;6.00;99.90;;;;;;4805106;29;20103;-86
2022/03/13 07:46:05;;;;;;;15.32;9.13;;;6.00;99.90;;;;;;4803900;29;20058;-85
2022/03/13 07:48:34;;;;;;;15.38;9.55;;;6.10;99.90;;;;;;4808726;29;20062;-86
2022/03/13 07:51:00;;;;;;;14.45;8.75;;;6.10;99.90;;;;;;4821905;29;20054;-86
2022/03/13 07:53:27;;;;;;;14.05;9.10;;;6.20;99.90;;;;;;4820471;29;20061;-86
2022/03/13 07:55:54;;;;;;;14.85;9.48;;;6.40;99.90;;;;;;4819727;29;20058;-87
2022/03/13 07:58:21;;;;;;;15.43;9.90;;;6.50;99.90;;;;;;4804306;29;20493;-86
2022/03/13 08:00:47;;;;;;;16.15;8.57;;;6.70;99.90;;;;;;4814450;29;20050;-86
2022/03/13 08:03:14;;;;;;;13.93;9.02;;;6.70;99.90;;;;;;4804644;29;20501;-86
2022/03/13 08:05:40;;;;;;;14.50;9.13;;;6.90;99.90;;;;;;4810889;29;20063;-86
2022/03/13 08:08:06;;;;;;;14.35;9.18;;;7.10;99.90;;;;;;4808119;29;20119;-85
2022/03/13 08:10:31;;;;;;;13.93;9.40;;;7.30;99.90;;;;;;4833419;29;20051;-85
2022/03/13 08:12:57;;;;;;;15.90;9.02;;;7.30;99.90;;;;;;4818270;29;20130;-84
2022/03/13 08:15:23;;;;;;;15.80;8.68;;;7.40;99.90;;;;;;4833490;29;20126;-85
2022/03/13 08:17:49;;;;;;;16.42;8.35;;;7.50;99.90;;;;;;4803624;29;20129;-85
2022/03/13 08:20:14;;;;;;;15.38;8.77;;;7.70;99.90;;;;;;4804663;29;20735;-86
2022/03/13 08:22:40;;;;;;;14.07;8.88;;;7.80;99.90;;;;;;4818647;29;20112;-85
2022/03/13 08:25:07;;;;;;;13.70;8.23;;;7.90;99.90;;;;;;4806226;29;20489;-86
2022/03/13 08:27:34;;;;;;;13.55;9.32;;;8.00;99.90;;;;;;4821634;29;20062;-86
2022/03/13 08:30:04;;;;;;;12.07;8.23;;;8.10;99.90;;;;;;4812133;29;20257;-87
2022/03/13 08:32:30;;;;;;;12.30;8.15;;;8.20;99.90;;;;;;4817154;29;20054;-86
2022/03/13 08:34:56;;;;;;;12.88;8.57;;;8.40;99.90;;;;;;4823743;29;20053;-85
2022/03/13 08:37:22;;;;;;;14.07;8.73;;;8.40;99.90;;;;;;4822162;29;20106;-86
2022/03/13 08:39:48;;;;;;;14.85;8.18;;;8.50;99.90;;;;;;4826221;29;20129;-87
2022/03/13 08:42:14;;;;;;;14.18;9.32;;;8.60;99.90;;;;;;4822330;29;20081;-87
2022/03/13 08:44:39;;;;;;;12.30;8.32;;;8.60;99.90;;;;;;4839171;29;20082;-85
2022/03/13 08:47:05;;;;;;;14.18;8.32;;;8.70;99.90;;;;;;4832390;29;20058;-85
2022/03/13 08:49:31;;;;;;;14.45;8.57;;;8.70;99.90;;;;;;4825402;29;20483;-85
2022/03/13 08:51:57;;;;;;;14.57;8.65;;;8.80;99.90;;;;;;4825002;29;20071;-88
2022/03/13 08:54:23;;;;;;;14.77;8.35;;;8.90;99.90;;;;;;4825402;29;20579;-88
2022/03/13 08:56:49;;;;;;;12.63;8.25;;;9.00;99.90;;;;;;4821666;29;20054;-87
2022/03/13 08:59:16;;;;;;;14.55;8.57;;;9.10;99.90;;;;;;4820709;29;20055;-86
2022/03/13 09:01:42;;;;;;;14.27;8.73;;;9.20;99.90;;;;;;4835973;29;20090;-87
2022/03/13 09:04:08;;;;;;;13.95;8.30;;;9.40;99.90;;;;;;4818718;29;20062;-86
2022/03/13 09:06:34;;;;;;;13.13;8.93;;;9.50;99.90;;;;;;4825032;29;20417;-86
2022/03/13 09:08:59;;;;;;;13.13;8.55;;;9.60;99.90;;;;;;4813952;29;20057;-86
2022/03/13 09:11:25;;;;;;;12.57;8.48;;;9.70;99.90;;;;;;4824158;29;20081;-87
2022/03/13 09:13:51;;;;;;;12.07;8.20;;;9.80;99.90;;;;;;4809343;29;20405;-87
2022/03/13 09:16:17;;;;;;;11.02;7.55;;;10.00;99.90;;;;;;4836469;29;20158;-87
2022/03/13 09:18:42;;;;;;;13.10;8.52;;;10.20;99.90;;;;;;4807852;29;20054;-89
2022/03/13 09:21:08;;;;;;;13.63;8.40;;;10.30;99.90;;;;;;4821407;29;20053;-88
2022/03/13 09:23:36;;;;;;;14.90;8.25;;;10.50;99.90;;;;;;4810429;29;20124;-88
2022/03/13 09:26:01;;;;;;;14.27;8.55;;;10.70;99.90;;;;;;4835937;29;20086;-89
2022/03/13 09:28:29;;;;;;;13.82;8.23;;;10.80;99.90;;;;;;4817433;29;20155;-87
2022/03/13 09:30:56;;;;;;;12.38;8.55;;;11.00;99.90;;;;;;4823323;29;20535;-88
2022/03/13 09:33:22;;;;;;;11.52;7.65;;;11.10;99.90;;;;;;4822405;29;20046;-87
2022/03/13 09:35:48;;;;;;;15.02;9.18;;;11.20;99.90;;;;;;4824882;29;20137;-85
2022/03/13 09:38:15;;;;;;;15.93;9.38;;;11.30;99.90;;;;;;4824504;29;20173;-86
2022/03/13 09:40:42;;;;;;;11.48;8.13;;;11.50;99.90;;;;;;4824833;29;20066;-86
2022/03/13 09:43:08;;;;;;;13.05;7.97;;;11.60;99.90;;;;;;4833458;29;20092;-86
2022/03/13 09:45:33;;;;;;;13.60;8.05;;;11.70;99.90;;;;;;4818863;29;20082;-86
2022/03/13 09:48:02;;;;;;;14.45;8.68;;;11.90;99.90;;;;;;4823044;29;20058;-85
2022/03/13 09:50:28;;;;;;;12.07;8.43;;;11.90;99.90;;;;;;4822878;29;20119;-86
2022/03/13 09:52:54;;;;;;;12.85;9.10;;;12.10;99.90;;;;;;4822144;29;20055;-86
2022/03/13 09:55:20;;;;;;;13.27;8.35;;;12.20;99.90;;;;;;4817241;29;20540;-86
2022/03/13 09:57:48;;;;;;;11.80;7.93;;;12.30;99.90;;;;;;4819330;29;20046;-88
2022/03/13 10:00:17;;;;;;;14.90;9.13;;;12.30;99.90;;;;;;4816153;29;20050;-87
2022/03/13 10:02:43;;;;;;;12.43;8.13;;;12.50;99.90;;;;;;4813320;29;20070;-85
2022/03/13 10:05:10;;;;;;;16.30;8.48;;;12.60;99.90;;;;;;4807653;29;20097;-86
2022/03/13 10:07:56;;;;;;;13.77;8.43;;;12.70;99.90;;;;;;4824626;29;20055;-87
2022/03/13 10:10:24;;;;;;;15.10;8.50;;;12.80;99.90;;;;;;4820467;29;20115;-85
2022/03/13 10:12:50;;;;;;;13.23;8.77;;;12.90;99.90;;;;;;4822844;29;20111;-87
2022/03/13 10:15:16;;;;;;;13.18;8.93;;;13.10;99.90;;;;;;4819349;29;20046;-86
2022/03/13 10:17:42;;;;;;;13.48;8.30;;;13.20;99.90;;;;;;4822213;29;20085;-87
2022/03/13 10:20:21;;;;;;;13.00;8.50;;;13.40;99.90;;;;;;4823474;29;20077;-87
2022/03/13 10:23:12;;;;;;;14.07;8.73;;;13.30;99.90;;;;;;4821529;29;20112;-88
2022/03/13 10:25:42;;;;;;;13.77;9.57;;;13.30;99.90;;;;;;4815265;29;20058;-84
2022/03/13 10:28:19;;;;;;;15.35;9.88;;;13.30;99.90;;;;;;4834849;29;20065;-88
2022/03/13 10:31:07;;;;;;;12.45;8.43;;;13.40;99.90;;;;;;4821846;29;20050;-87
2022/03/13 10:33:44;;;;;;;13.88;8.98;;;13.40;99.90;;;;;;4815537;29;20208;-87
2022/03/13 10:36:34;;;;;;;14.90;9.30;;;13.50;99.90;;;;;;4814082;29;20058;-86
2022/03/13 10:39:02;;;;;;;12.98;8.63;;;13.60;99.90;;;;;;4819955;29;20201;-86
2022/03/13 10:41:43;;;;;;;12.98;8.77;;;13.70;99.90;;;;;;4821126;29;20072;-88
2022/03/13 10:44:16;;;;;;;13.55;8.85;;;13.80;99.90;;;;;;4822685;29;20137;-86
2022/03/13 10:46:42;;;;;;;12.50;8.77;;;13.90;99.90;;;;;;4822721;29;20042;-86
2022/03/13 10:49:09;;;;;;;12.70;8.45;;;13.90;99.90;;;;;;4818016;29;20046;-85
2022/03/13 10:51:38;;;;;;;12.88;8.75;;;14.20;99.90;;;;;;4823512;29;20062;-87
2022/03/13 10:54:05;;;;;;;12.98;9.30;;;14.50;99.90;;;;;;4823897;29;20047;-88
2022/03/13 10:56:31;;;;;;;15.95;9.70;;;14.70;99.90;;;;;;4817788;29;20185;-89
2022/03/13 10:58:59;;;;;;;12.90;8.70;;;14.80;99.90;;;;;;4821944;29;20057;-87
2022/03/13 11:01:31;;;;;;;13.27;8.82;;;14.90;99.90;;;;;;4822920;29;20063;-87
2022/03/13 11:04:02;;;;;;;13.48;8.57;;;14.90;99.90;;;;;;4823004;29;20066;-84
2022/03/13 11:06:29;;;;;;;15.80;10.48;;;14.90;99.90;;;;;;4822550;29;20595;-85
2022/03/13 11:08:55;;;;;;;14.13;9.68;;;14.80;99.90;;;;;;4823101;29;20479;-87
2022/03/13 11:11:27;;;;;;;13.70;9.25;;;14.70;99.90;;;;;;4818106;29;20414;-88
2022/03/13 11:13:56;;;;;;;13.70;9.23;;;14.50;99.90;;;;;;4810399;29;20043;-90
2022/03/13 11:16:30;;;;;;;11.98;8.48;;;14.40;99.90;;;;;;4813664;29;20061;-90
2022/03/13 11:19:06;;;;;;;12.25;8.82;;;14.30;99.90;;;;;;4821636;29;20078;-88
2022/03/13 11:21:32;;;;;;;12.50;8.98;;;14.20;99.90;;;;;;4822308;29;20054;-89
2022/03/13 11:24:01;;;;;;;12.38;8.43;;;14.00;99.90;;;;;;4818176;29;20050;-88
2022/03/13 11:26:31;;;;;;;13.52;9.13;;;13.90;99.90;;;;;;4823276;29;20054;-84
2022/03/13 11:28:58;;;;;;;12.93;9.40;;;13.70;99.90;;;;;;4823134;29;20054;-86
2022/03/13 11:31:33;;;;;;;13.13;9.57;;;13.70;99.90;;;;;;4820563;29;20520;-86
2022/03/13 11:34:12;;;;;;;14.02;9.82;;;13.80;99.90;;;;;;4818372;29;20078;-85
2022/03/13 11:36:41;;;;;;;15.38;9.20;;;14.00;99.90;;;;;;4834172;29;20051;-88
2022/03/13 11:39:09;;;;;;;13.20;9.43;;;14.20;99.90;;;;;;4822395;29;20845;-87
2022/03/13 11:41:38;;;;;;;12.98;9.20;;;14.20;99.90;;;;;;4819320;29;20547;-86
2022/03/13 11:44:17;;;;;;;13.95;8.93;;;14.20;99.90;;;;;;4823286;29;20125;-87
2022/03/13 11:46:45;;;;;;;13.40;9.32;;;14.10;99.80;;;;;;4808838;29;20542;-85
2022/03/13 11:49:39;;;;;;;13.65;8.95;;;14.10;99.90;;;;;;4809658;29;20061;-85
2022/03/13 11:52:15;;;;;;;12.98;9.10;;;14.00;98.10;;;;;;4809102;29;20069;-80
2022/03/13 11:54:49;;;;;;;;;;;14.00;99.10;;;;;;4823290;29;20050;-80
2022/03/13 11:57:17;;;;;;;13.70;8.98;;;14.00;99.20;;;;;;4822448;29;19935;-80
2022/03/13 12:00:00;;;;;;;14.30;9.57;;;14.20;99.50;;;;;;4832990;29;20057;-80
2022/03/13 12:02:41;;;;;;;13.10;9.02;;;14.40;99.10;;;;;;4789103;29;20070;-81
2022/03/13 12:05:25;;;;;;;13.07;9.10;;;14.60;97.60;;;;;;4820183;29;20455;-80
2022/03/13 12:08:05;;;;;;;14.45;8.48;;;14.90;98.00;;;;;;4820012;29;20460;-80
2022/03/13 12:10:41;;;;;;;12.85;9.38;;;15.40;97.00;;;;;;4823393;29;20057;-85
2022/03/13 12:13:08;;;;;;;;;;;15.50;98.10;;;;;;4818171;29;20111;-79
2022/03/13 12:15:35;;;;;;;11.95;8.88;;;15.60;97.70;;;;;;4823009;29;19932;-80
2022/03/13 12:18:16;;;;;;;13.95;9.57;;;15.60;98.10;;;;;;4809790;29;20488;-80
2022/03/13 12:20:43;;;;;;;15.30;9.25;;;15.70;96.80;;;;;;4822919;29;20055;-80
2022/03/13 12:23:09;;;;;;;12.20;9.05;;;15.70;97.10;;;;;;4821993;29;20058;-80
2022/03/13 12:25:35;;;;;;;17.17;9.77;;;15.60;96.70;;;;;;4822623;29;20065;-80
2022/03/13 12:28:01;;;;;;;12.65;9.35;;;15.60;96.80;;;;;;4821648;29;20054;-81
2022/03/13 12:30:34;;;;;;;13.13;9.32;;;15.70;96.30;;;;;;4822684;29;20139;-80
2022/03/13 12:33:02;;;;;;;14.88;9.10;;;15.70;95.90;;;;;;4821229;29;20479;-81
2022/03/13 12:35:28;;;;;;;12.57;8.77;;;15.80;96.10;;;;;;4820619;29;20145;-80
2022/03/13 12:38:02;;;;;;;13.52;8.68;;;15.90;95.90;;;;;;4812471;29;20111;-80
2022/03/13 12:40:30;;;;;;;12.45;8.98;;;16.20;95.30;;;;;;4821995;29;20054;-80
2022/03/13 12:42:59;;;;;;;13.20;8.93;;;16.50;95.70;;;;;;4813308;29;20519;-80